Time;durP1;ratioP1;P1;durP2;ratioP2;P2;SDS_P1;SDS_P2;PMS_P1;PMS_P2;Temp;Humidity;BMP_temperature;BMP_pressure;BME280_temperature;BME280_humidity;BME280_pressure;Samples;Min_cycle;Max_cycle;Signal;HPM_P1;HPM_P2
2023/05/26 00:02:14;;;;;;;2.00;2.00;;;20.70;69.10;;;;;;5084250;28;44420;-70
2023/05/26 00:04:43;;;;;;;2.00;2.00;;;20.70;69.10;;;;;;5082872;27;43400;-70
2023/05/26 00:07:11;;;;;;;2.17;2.17;;;20.60;69.50;;;;;;5088127;27;43359;-69
2023/05/26 00:09:39;;;;;;;2.07;2.07;;;20.60;69.70;;;;;;5087103;28;43606;-71
2023/05/26 00:12:07;;;;;;;2.00;2.00;;;20.60;69.60;;;;;;5087705;27;43402;-70
2023/05/26 00:14:35;;;;;;;1.97;1.97;;;20.60;69.40;;;;;;5081966;28;43374;-70
2023/05/26 00:17:03;;;;;;;2.00;2.00;;;20.60;69.40;;;;;;5087651;27;43565;-69
2023/05/26 00:19:35;;;;;;;2.20;2.20;;;20.50;70.30;;;;;;5089503;27;43591;-69
2023/05/26 00:22:03;;;;;;;2.00;2.00;;;20.50;69.80;;;;;;5085536;28;44791;-70
2023/05/26 00:24:31;;;;;;;1.90;1.90;;;20.60;69.70;;;;;;5087475;28;43474;-70
2023/05/26 00:26:59;;;;;;;2.10;2.10;;;20.80;69.10;;;;;;5086095;28;44182;-70
2023/05/26 00:29:27;;;;;;;2.27;2.27;;;20.90;68.60;;;;;;5087495;27;44014;-71
2023/05/26 00:31:57;;;;;;;1.80;1.80;;;21.00;68.60;;;;;;5082976;28;44980;-70
2023/05/26 00:34:26;;;;;;;2.07;2.07;;;21.00;68.60;;;;;;5085894;27;43431;-71
2023/05/26 00:36:55;;;;;;;1.93;1.93;;;21.00;68.60;;;;;;5087846;27;43502;-71
2023/05/26 00:39:23;;;;;;;2.17;2.17;;;20.90;69.40;;;;;;5087483;27;43832;-70
2023/05/26 00:41:52;;;;;;;1.97;1.97;;;20.80;69.10;;;;;;5086172;27;44421;-70
2023/05/26 00:44:19;;;;;;;2.30;2.20;;;20.80;69.30;;;;;;5086975;28;43427;-70
2023/05/26 00:46:47;;;;;;;2.27;2.27;;;20.70;69.20;;;;;;5085795;28;43434;-69
2023/05/26 00:49:15;;;;;;;1.97;1.97;;;20.70;69.10;;;;;;5084063;27;43689;-70
2023/05/26 00:51:44;;;;;;;2.10;2.10;;;20.60;69.00;;;;;;5084607;27;43474;-70
2023/05/26 00:54:13;;;;;;;2.10;2.10;;;20.60;69.30;;;;;;5091075;27;43380;-70
2023/05/26 00:56:42;;;;;;;1.90;1.90;;;20.60;69.70;;;;;;5084137;28;43438;-69
2023/05/26 00:59:11;;;;;;;2.10;2.07;;;20.70;70.30;;;;;;5090392;27;43867;-69
2023/05/26 01:01:39;;;;;;;2.00;2.00;;;20.80;69.40;;;;;;5093574;27;43397;-69
2023/05/26 01:04:11;;;;;;;1.90;1.90;;;20.80;69.20;;;;;;5088391;27;43505;-69
2023/05/26 01:06:40;;;;;;;2.13;2.13;;;20.80;69.10;;;;;;5093404;28;43434;-69
2023/05/26 01:09:08;;;;;;;2.00;2.00;;;20.70;69.20;;;;;;5094808;27;43834;-70
2023/05/26 01:11:39;;;;;;;2.10;2.10;;;20.70;69.40;;;;;;5093740;28;44793;-69
2023/05/26 01:14:11;;;;;;;1.90;1.90;;;20.70;69.30;;;;;;5095633;27;43401;-69
2023/05/26 01:16:43;;;;;;;1.93;1.93;;;20.70;69.20;;;;;;5095541;28;43390;-69
2023/05/26 01:19:23;;;;;;;1.93;1.93;;;20.70;69.10;;;;;;5093850;28;45695;-70
2023/05/26 01:21:51;;;;;;;1.90;1.90;;;20.60;69.50;;;;;;5094832;27;43421;-70
2023/05/26 01:24:22;;;;;;;2.10;2.10;;;20.60;69.60;;;;;;5093491;28;43836;-69
2023/05/26 01:27:03;;;;;;;2.20;2.20;;;20.60;69.50;;;;;;5094535;27;43589;-70
2023/05/26 01:29:34;;;;;;;1.90;1.90;;;20.60;69.40;;;;;;5091675;28;43595;-70
2023/05/26 01:32:09;;;;;;;1.90;1.90;;;20.50;69.30;;;;;;5090199;27;44448;-69
2023/05/26 01:34:37;;;;;;;2.10;2.10;;;20.50;69.60;;;;;;5095887;27;43339;-69
2023/05/26 01:37:06;;;;;;;1.70;1.70;;;20.50;69.80;;;;;;5095251;27;43370;-69
2023/05/26 01:39:34;;;;;;;1.90;1.90;;;20.60;69.50;;;;;;5094781;28;43730;-69
2023/05/26 01:42:07;;;;;;;1.77;1.77;;;20.70;69.30;;;;;;5093842;27;44678;-70
2023/05/26 01:44:49;;;;;;;1.90;1.90;;;20.80;69.10;;;;;;5093163;28;43426;-69
2023/05/26 01:47:18;;;;;;;1.90;1.90;;;20.80;69.10;;;;;;5093441;28;43466;-69
2023/05/26 01:49:47;;;;;;;2.10;2.00;;;20.80;69.30;;;;;;5082095;28;45630;-70
2023/05/26 01:52:16;;;;;;;1.93;1.93;;;20.80;69.30;;;;;;5088215;28;43779;-70
2023/05/26 01:54:46;;;;;;;1.67;1.67;;;20.70;69.10;;;;;;5094632;27;43489;-69
2023/05/26 01:57:15;;;;;;;1.80;1.80;;;20.70;69.00;;;;;;5093566;28;43576;-70
2023/05/26 01:59:44;;;;;;;1.83;1.83;;;20.60;69.80;;;;;;5093375;27;45547;-69
2023/05/26 02:02:14;;;;;;;1.80;1.80;;;20.60;69.50;;;;;;5092442;27;44696;-70
2023/05/26 02:04:42;;;;;;;2.00;2.00;;;20.60;69.50;;;;;;5091172;28;43486;-70
2023/05/26 02:07:10;;;;;;;1.80;1.80;;;20.60;69.50;;;;;;5094823;27;43452;-69
2023/05/26 02:09:38;;;;;;;1.70;1.70;;;20.60;69.40;;;;;;5093166;28;46026;-70
2023/05/26 02:12:09;;;;;;;2.10;2.10;;;20.60;69.50;;;;;;5099534;27;43546;-69
2023/05/26 02:14:37;;;;;;;1.90;1.90;;;20.50;69.70;;;;;;5093793;27;43398;-70
2023/05/26 02:17:06;;;;;;;1.70;1.70;;;20.50;69.70;;;;;;5095290;27;43471;-69
2023/05/26 02:19:36;;;;;;;2.00;2.00;;;20.50;69.60;;;;;;5092976;28;44167;-69
2023/05/26 02:22:04;;;;;;;1.70;1.70;;;20.50;69.40;;;;;;5092681;28;44906;-69
2023/05/26 02:24:33;;;;;;;1.80;1.80;;;20.50;69.60;;;;;;5093882;27;43382;-69
2023/05/26 02:27:01;;;;;;;1.93;1.93;;;20.50;69.90;;;;;;5092738;28;43460;-69
2023/05/26 02:29:29;;;;;;;1.90;1.90;;;20.60;69.90;;;;;;5092293;28;46067;-69
2023/05/26 02:31:57;;;;;;;1.80;1.80;;;20.70;69.50;;;;;;5092299;28;44739;-70
2023/05/26 02:34:25;;;;;;;2.00;2.00;;;20.80;68.90;;;;;;5091400;28;44488;-70
2023/05/26 02:36:55;;;;;;;1.80;1.80;;;20.90;68.60;;;;;;5094065;28;43530;-70
2023/05/26 02:39:23;;;;;;;1.70;1.70;;;20.90;68.60;;;;;;5094359;27;44006;-69
2023/05/26 02:41:52;;;;;;;2.00;2.00;;;20.90;68.70;;;;;;5092952;28;43401;-69
2023/05/26 02:44:20;;;;;;;1.80;1.80;;;20.80;69.30;;;;;;5092956;28;43562;-69
2023/05/26 02:46:48;;;;;;;1.80;1.80;;;20.80;69.10;;;;;;5093899;28;43474;-69
2023/05/26 02:49:17;;;;;;;1.80;1.80;;;20.70;69.20;;;;;;5091765;28;43908;-70
2023/05/26 02:51:45;;;;;;;1.90;1.90;;;20.70;69.30;;;;;;5093884;27;43461;-70
2023/05/26 02:54:14;;;;;;;1.90;1.90;;;20.70;69.10;;;;;;5092403;27;43443;-70
2023/05/26 02:56:42;;;;;;;1.80;1.80;;;20.60;69.00;;;;;;5091741;27;43426;-70
2023/05/26 02:59:11;;;;;;;1.90;1.90;;;20.60;69.30;;;;;;5091512;28;45729;-70
2023/05/26 03:01:39;;;;;;;1.77;1.77;;;20.60;69.70;;;;;;5093762;27;43480;-70
2023/05/26 03:04:07;;;;;;;1.80;1.80;;;20.50;69.60;;;;;;5084996;28;43375;-69
2023/05/26 03:06:36;;;;;;;1.73;1.73;;;20.50;69.30;;;;;;5091334;28;43532;-69
2023/05/26 03:09:06;;;;;;;2.00;2.00;;;20.50;69.30;;;;;;5096596;27;45981;-70
2023/05/26 03:11:36;;;;;;;1.90;1.90;;;20.50;70.20;;;;;;5091560;28;43450;-71
2023/05/26 03:14:05;;;;;;;2.03;2.00;;;20.50;69.80;;;;;;5091562;27;44024;-69
2023/05/26 03:16:33;;;;;;;1.70;1.70;;;20.60;69.80;;;;;;5091011;28;43612;-69
2023/05/26 03:19:03;;;;;;;1.80;1.80;;;20.70;69.40;;;;;;5090995;28;43623;-69
2023/05/26 03:21:32;;;;;;;2.00;2.00;;;20.80;68.80;;;;;;5091379;28;44992;-69
2023/05/26 03:24:17;;;;;;;2.07;2.07;;;20.90;68.50;;;;;;5092500;27;43447;-69
2023/05/26 03:26:48;;;;;;;1.90;1.90;;;20.90;69.20;;;;;;5087726;28;43410;-69
2023/05/26 03:29:17;;;;;;;1.70;1.70;;;20.90;68.50;;;;;;5091357;28;44028;-69
2023/05/26 03:31:46;;;;;;;1.93;1.93;;;20.90;68.50;;;;;;5090664;28;44754;-69
2023/05/26 03:34:14;;;;;;;1.80;1.80;;;20.80;68.90;;;;;;5085071;28;43992;-70
2023/05/26 03:36:45;;;;;;;2.00;2.00;;;20.70;69.00;;;;;;5090284;27;43351;-69
2023/05/26 03:39:24;;;;;;;1.83;1.83;;;20.70;69.80;;;;;;5091670;28;45700;-70
2023/05/26 03:41:56;;;;;;;1.90;1.90;;;20.70;69.00;;;;;;5092028;28;43458;-70
2023/05/26 03:44:26;;;;;;;2.30;2.20;;;20.60;68.90;;;;;;5091960;27;43501;-71
2023/05/26 03:46:57;;;;;;;2.40;2.20;;;20.60;69.30;;;;;;5092264;28;43427;-69
2023/05/26 03:49:25;;;;;;;2.40;2.30;;;20.50;69.50;;;;;;5091310;28;45715;-72
2023/05/26 03:51:54;;;;;;;2.37;2.27;;;20.50;69.50;;;;;;5091583;28;44831;-70
2023/05/26 03:54:22;;;;;;;2.50;2.40;;;20.50;69.30;;;;;;5091532;28;43311;-70
2023/05/26 03:56:50;;;;;;;2.53;2.07;;;20.50;69.30;;;;;;5089419;28;43527;-69
2023/05/26 03:59:21;;;;;;;3.27;2.90;;;20.50;69.60;;;;;;5091981;27;45335;-69
2023/05/26 04:01:49;;;;;;;3.17;2.80;;;20.50;69.80;;;;;;5093052;28;43366;-69
2023/05/26 04:04:17;;;;;;;3.10;2.80;;;20.60;69.50;;;;;;5092438;27;43876;-69
2023/05/26 04:06:45;;;;;;;3.63;2.70;;;20.70;69.00;;;;;;5091403;28;43510;-69
2023/05/26 04:09:13;;;;;;;3.20;2.97;;;20.90;68.70;;;;;;5085779;28;43869;-69
2023/05/26 04:11:41;;;;;;;3.00;2.80;;;20.90;68.60;;;;;;5089710;27;44755;-70
2023/05/26 04:14:10;;;;;;;3.17;2.83;;;20.90;68.60;;;;;;5087151;28;43379;-70
2023/05/26 04:16:40;;;;;;;3.13;2.83;;;20.90;68.50;;;;;;5093074;28;43906;-70
2023/05/26 04:19:08;;;;;;;3.40;3.10;;;20.80;68.60;;;;;;5092623;27;43606;-70
2023/05/26 04:21:37;;;;;;;3.37;3.03;;;20.70;69.00;;;;;;5086622;28;43963;-70
2023/05/26 04:24:06;;;;;;;3.13;2.57;;;20.70;69.20;;;;;;5092159;27;43454;-70
2023/05/26 04:26:34;;;;;;;3.23;2.93;;;20.70;69.30;;;;;;5090958;28;43593;-70
2023/05/26 04:29:06;;;;;;;3.10;2.90;;;20.60;69.00;;;;;;5085916;27;43515;-70
2023/05/26 04:32:00;;;;;;;4.87;3.27;;;20.60;69.00;;;;;;5082915;28;43376;-70
2023/05/26 04:34:44;;;;;;;3.80;3.40;;;20.60;69.30;;;;;;5083921;28;43408;-69
2023/05/26 04:37:17;;;;;;;3.73;3.40;;;20.60;69.70;;;;;;5084746;28;43410;-69
2023/05/26 04:39:45;;;;;;;5.97;3.57;;;20.60;69.70;;;;;;5083464;28;45429;-69
2023/05/26 04:42:13;;;;;;;3.57;3.27;;;20.60;69.40;;;;;;5087138;27;44544;-69
2023/05/26 04:44:43;;;;;;;5.13;3.73;;;20.50;69.30;;;;;;5091369;28;43426;-70
2023/05/26 04:47:13;;;;;;;3.87;3.37;;;20.50;69.50;;;;;;5092761;28;43440;-70
2023/05/26 04:49:42;;;;;;;3.83;3.40;;;20.50;69.80;;;;;;5093111;27;43613;-69
2023/05/26 04:52:10;;;;;;;3.80;3.40;;;20.50;69.60;;;;;;5091178;27;43378;-69
2023/05/26 04:54:40;;;;;;;5.10;3.80;;;20.70;69.40;;;;;;5092573;27;43494;-69
2023/05/26 04:57:09;;;;;;;4.10;3.70;;;20.80;68.80;;;;;;5092407;27;43375;-69
2023/05/26 04:59:53;;;;;;;5.17;3.53;;;20.90;68.40;;;;;;5092045;27;46103;-70
2023/05/26 05:02:23;;;;;;;4.43;3.63;;;20.90;68.30;;;;;;5090491;27;43524;-70
2023/05/26 05:05:04;;;;;;;3.80;3.40;;;20.90;68.40;;;;;;5090331;28;43393;-69
2023/05/26 05:07:32;;;;;;;4.07;3.60;;;20.80;68.40;;;;;;5090390;27;43547;-70
2023/05/26 05:10:01;;;;;;;3.80;3.50;;;20.80;68.70;;;;;;5090177;27;45518;-70
2023/05/26 05:12:31;;;;;;;3.43;3.20;;;20.70;69.10;;;;;;5083868;28;43550;-70
2023/05/26 05:14:59;;;;;;;3.53;3.23;;;20.70;69.10;;;;;;5077750;28;43453;-69
2023/05/26 05:17:28;;;;;;;3.57;3.30;;;20.70;69.00;;;;;;5091263;28;43439;-70
2023/05/26 05:19:57;;;;;;;3.87;3.47;;;20.60;69.00;;;;;;5084836;28;45982;-70
2023/05/26 05:22:43;;;;;;;3.90;3.57;;;20.60;69.10;;;;;;5075764;28;43498;-69
2023/05/26 05:25:12;;;;;;;3.63;3.33;;;20.50;69.60;;;;;;5075602;28;43456;-70
2023/05/26 05:27:40;;;;;;;3.50;3.20;;;20.50;69.50;;;;;;5091483;28;43472;-69
2023/05/26 05:30:09;;;;;;;2.93;2.80;;;20.50;70.00;;;;;;5088113;28;43579;-70
2023/05/26 05:32:39;;;;;;;3.77;3.40;;;20.50;69.30;;;;;;5090124;28;43867;-69
2023/05/26 05:35:11;;;;;;;3.60;3.40;;;20.50;69.50;;;;;;5090200;27;43352;-69
2023/05/26 05:37:39;;;;;;;3.40;3.20;;;20.50;69.80;;;;;;5092339;27;43478;-70
2023/05/26 05:40:08;;;;;;;3.50;3.20;;;20.50;69.70;;;;;;5093949;28;46254;-70
2023/05/26 05:42:36;;;;;;;3.43;3.13;;;20.50;69.50;;;;;;5095026;27;43403;-69
2023/05/26 05:45:06;;;;;;;3.20;3.00;;;20.50;69.40;;;;;;5093427;28;43395;-69
2023/05/26 05:48:01;;;;;;;3.57;3.37;;;20.50;69.50;;;;;;5094658;27;43533;-70
2023/05/26 05:50:31;;;;;;;3.73;3.43;;;20.40;69.80;;;;;;5096971;27;45910;-70
2023/05/26 05:53:00;;;;;;;3.27;3.07;;;20.50;69.70;;;;;;5086410;28;44975;-70
2023/05/26 05:55:30;;;;;;;3.57;3.37;;;20.70;69.40;;;;;;5092560;27;43383;-70
2023/05/26 05:57:59;;;;;;;3.27;3.00;;;20.80;68.90;;;;;;5097524;27;43588;-70
2023/05/26 06:00:27;;;;;;;3.20;3.00;;;20.90;68.50;;;;;;5093148;28;45685;-69
2023/05/26 06:02:56;;;;;;;3.37;3.07;;;21.00;68.40;;;;;;5092641;28;43469;-72
2023/05/26 06:05:26;;;;;;;3.10;2.90;;;20.90;68.40;;;;;;5093627;28;43457;-70
2023/05/26 06:07:54;;;;;;;3.53;3.23;;;20.80;68.30;;;;;;5093790;28;43466;-69
2023/05/26 06:10:24;;;;;;;3.00;2.80;;;20.80;68.70;;;;;;5094985;27;43884;-70
2023/05/26 06:12:53;;;;;;;3.30;3.10;;;20.70;69.00;;;;;;5094811;27;43405;-70
2023/05/26 06:15:21;;;;;;;3.00;2.80;;;20.70;69.20;;;;;;5095212;27;43465;-69
2023/05/26 06:17:49;;;;;;;3.50;3.30;;;20.70;69.00;;;;;;5096893;27;43385;-69
2023/05/26 06:20:18;;;;;;;2.97;2.87;;;20.60;69.00;;;;;;5093416;28;45894;-69
2023/05/26 06:22:48;;;;;;;3.40;3.20;;;20.60;69.30;;;;;;5092575;28;44824;-70
2023/05/26 06:25:16;;;;;;;3.37;3.17;;;20.50;69.60;;;;;;5094028;27;43434;-69
2023/05/26 06:27:44;;;;;;;3.10;2.90;;;20.50;69.60;;;;;;5093403;28;43423;-70
2023/05/26 06:30:13;;;;;;;3.03;2.83;;;20.50;69.40;;;;;;5093106;28;44987;-69
2023/05/26 06:32:44;;;;;;;3.20;3.00;;;20.50;69.40;;;;;;5091943;27;43486;-70
2023/05/26 06:35:13;;;;;;;3.30;3.10;;;20.40;69.50;;;;;;5092339;28;43842;-70
2023/05/26 06:37:43;;;;;;;3.10;2.90;;;20.50;69.90;;;;;;5091832;27;43589;-70
2023/05/26 06:40:13;;;;;;;3.57;3.27;;;20.60;69.80;;;;;;5092078;28;44715;-70
2023/05/26 06:42:42;;;;;;;3.10;2.90;;;20.60;69.10;;;;;;5090916;27;43352;-69
2023/05/26 06:45:11;;;;;;;3.13;2.83;;;20.80;68.80;;;;;;5092508;27;43625;-69
2023/05/26 06:47:40;;;;;;;3.40;3.10;;;20.80;68.70;;;;;;5093021;28;43980;-70
2023/05/26 06:50:12;;;;;;;3.10;2.90;;;20.80;68.60;;;;;;5092108;28;45748;-70
2023/05/26 06:52:40;;;;;;;3.30;3.10;;;20.80;68.50;;;;;;5092166;27;44728;-70
2023/05/26 06:55:09;;;;;;;3.27;3.00;;;20.70;68.50;;;;;;5085272;28;43419;-70
2023/05/26 06:57:42;;;;;;;3.20;3.00;;;20.70;69.00;;;;;;5093062;28;43406;-69
2023/05/26 07:00:11;;;;;;;2.93;2.83;;;20.60;69.30;;;;;;5092215;28;45887;-69
2023/05/26 07:02:43;;;;;;;2.87;2.77;;;20.60;69.30;;;;;;5085808;28;44474;-70
2023/05/26 07:05:27;;;;;;;2.63;2.50;;;20.60;69.10;;;;;;5091786;28;44074;-70
2023/05/26 07:07:55;;;;;;;3.40;3.20;;;20.50;69.10;;;;;;5087957;28;43414;-70
2023/05/26 07:10:24;;;;;;;2.90;2.70;;;20.50;69.50;;;;;;5105152;27;46096;-70
2023/05/26 07:12:53;;;;;;;3.07;2.97;;;20.50;69.80;;;;;;5081491;28;44700;-69
2023/05/26 07:15:26;;;;;;;2.90;2.80;;;20.50;69.50;;;;;;5091802;28;43510;-72
2023/05/26 07:17:54;;;;;;;2.87;2.77;;;20.60;69.50;;;;;;5092545;28;43399;-70
2023/05/26 07:20:22;;;;;;;3.30;3.10;;;20.60;69.20;;;;;;5090873;28;45460;-69
2023/05/26 07:22:50;;;;;;;2.97;2.73;;;20.60;69.10;;;;;;5092326;28;45007;-69
2023/05/26 07:25:26;;;;;;;2.90;2.70;;;20.60;69.50;;;;;;5085020;28;43421;-70
2023/05/26 07:27:56;;;;;;;2.70;2.60;;;20.60;69.50;;;;;;5092005;27;43391;-70
2023/05/26 07:30:24;;;;;;;2.77;2.67;;;20.60;69.20;;;;;;5091683;28;43862;-70
2023/05/26 07:33:13;;;;;;;3.10;3.00;;;20.60;69.20;;;;;;5087693;28;43763;-70
2023/05/26 07:35:42;;;;;;;2.83;2.73;;;20.50;69.40;;;;;;5089966;27;43506;-70
2023/05/26 07:38:13;;;;;;;3.00;2.80;;;20.50;69.70;;;;;;5086637;28;43554;-70
2023/05/26 07:40:40;;;;;;;2.90;2.70;;;20.50;69.60;;;;;;5093583;27;43999;-70
2023/05/26 07:43:12;;;;;;;3.07;2.93;;;20.50;69.50;;;;;;5092211;28;43491;-69
2023/05/26 07:45:40;;;;;;;2.73;2.63;;;20.50;69.50;;;;;;5088182;28;43555;-70
2023/05/26 07:48:10;;;;;;;2.80;2.70;;;20.40;69.60;;;;;;5092622;27;43324;-70
2023/05/26 07:50:38;;;;;;;3.20;3.00;;;20.40;69.90;;;;;;5088451;28;43648;-69
2023/05/26 07:53:06;;;;;;;2.87;2.77;;;20.50;69.90;;;;;;5092608;28;44051;-70
2023/05/26 07:55:34;;;;;;;2.60;2.50;;;20.60;69.50;;;;;;5092182;28;43888;-69
2023/05/26 07:58:02;;;;;;;2.73;2.63;;;20.70;69.00;;;;;;5093169;27;43525;-70
2023/05/26 08:00:32;;;;;;;2.63;2.53;;;20.80;68.80;;;;;;5092612;27;43991;-69
2023/05/26 08:03:00;;;;;;;2.93;2.83;;;20.80;68.90;;;;;;5089879;28;44659;-70
2023/05/26 08:05:28;;;;;;;3.13;2.93;;;20.70;68.60;;;;;;5090981;28;43448;-70
2023/05/26 08:07:57;;;;;;;2.90;2.80;;;20.70;68.80;;;;;;5093244;27;43379;-70
2023/05/26 08:10:25;;;;;;;2.83;2.73;;;20.60;68.90;;;;;;5090951;28;46140;-70
2023/05/26 08:12:53;;;;;;;2.30;2.20;;;20.60;69.50;;;;;;5091957;27;43306;-70
2023/05/26 08:15:21;;;;;;;2.87;2.67;;;20.60;69.50;;;;;;5092186;28;43565;-70
2023/05/26 08:17:51;;;;;;;2.60;2.50;;;20.50;69.30;;;;;;5093548;27;43436;-70
2023/05/26 08:20:19;;;;;;;2.63;2.53;;;20.50;69.30;;;;;;5091502;28;45767;-70
2023/05/26 08:22:47;;;;;;;2.70;2.60;;;20.50;69.40;;;;;;5088961;28;43434;-70
2023/05/26 08:25:15;;;;;;;2.97;2.77;;;20.50;69.90;;;;;;5087994;27;43472;-69
2023/05/26 08:27:43;;;;;;;2.80;2.70;;;20.50;70.00;;;;;;5092403;27;43596;-70
2023/05/26 08:30:12;;;;;;;2.60;2.50;;;20.50;69.70;;;;;;5090565;28;44070;-69
2023/05/26 08:32:40;;;;;;;2.67;2.57;;;20.60;69.60;;;;;;5092028;27;43385;-70
2023/05/26 08:35:10;;;;;;;2.80;2.70;;;20.50;69.30;;;;;;5093173;27;43335;-70
2023/05/26 08:37:38;;;;;;;2.60;2.50;;;20.50;69.60;;;;;;5092629;27;43406;-69
2023/05/26 08:40:07;;;;;;;2.80;2.70;;;20.50;69.80;;;;;;5092362;27;43890;-70
2023/05/26 08:42:37;;;;;;;2.63;2.53;;;20.50;69.60;;;;;;5091634;27;43343;-69
2023/05/26 08:45:05;;;;;;;2.50;2.40;;;20.50;69.50;;;;;;5091622;27;43412;-69
2023/05/26 08:47:34;;;;;;;2.93;2.83;;;20.50;69.60;;;;;;5090622;27;43482;-69
2023/05/26 08:50:04;;;;;;;2.60;2.50;;;20.40;69.70;;;;;;5091121;27;44054;-69
2023/05/26 08:52:34;;;;;;;2.70;2.60;;;20.40;70.00;;;;;;5091548;27;43410;-70
2023/05/26 08:55:01;;;;;;;2.23;2.13;;;20.50;69.90;;;;;;5091668;28;43386;-69
2023/05/26 08:57:30;;;;;;;2.73;2.63;;;20.60;69.60;;;;;;5091403;28;43498;-69
2023/05/26 08:59:58;;;;;;;2.30;2.30;;;20.60;69.40;;;;;;5091696;27;43898;-69
2023/05/26 09:02:27;;;;;;;2.20;2.20;;;20.60;69.10;;;;;;5091993;28;43521;-72
2023/05/26 09:04:55;;;;;;;2.60;2.50;;;20.60;69.40;;;;;;5092496;27;43438;-69
2023/05/26 09:07:25;;;;;;;2.70;2.60;;;20.60;69.50;;;;;;5090872;28;44113;-69
2023/05/26 09:10:04;;;;;;;2.40;2.40;;;20.60;69.50;;;;;;5090126;28;45745;-70
2023/05/26 09:12:36;;;;;;;2.20;2.20;;;20.60;69.30;;;;;;5090171;27;43457;-70
2023/05/26 09:15:05;;;;;;;2.60;2.40;;;20.60;69.30;;;;;;5080853;28;43422;-70
2023/05/26 09:17:36;;;;;;;2.50;2.40;;;20.50;69.50;;;;;;5095654;27;43367;-70
2023/05/26 09:20:05;;;;;;;2.20;2.20;;;20.50;69.90;;;;;;5094880;27;43766;-70
2023/05/26 09:22:36;;;;;;;2.27;2.17;;;20.50;69.80;;;;;;5093555;27;44717;-70
2023/05/26 09:25:06;;;;;;;2.60;2.50;;;20.40;69.50;;;;;;5098914;27;43477;-69
2023/05/26 09:27:34;;;;;;;2.70;2.60;;;20.40;69.60;;;;;;5093727;28;43507;-70
2023/05/26 09:30:02;;;;;;;2.57;2.47;;;20.30;69.80;;;;;;5094562;27;43835;-69
2023/05/26 09:32:31;;;;;;;2.23;2.20;;;20.40;70.10;;;;;;5094255;28;43438;-70
2023/05/26 09:35:01;;;;;;;2.57;2.47;;;20.50;70.10;;;;;;5094776;28;43791;-70
2023/05/26 09:37:29;;;;;;;2.40;2.30;;;20.50;69.80;;;;;;5095069;27;43421;-69
2023/05/26 09:40:00;;;;;;;2.30;2.30;;;20.60;69.60;;;;;;5090838;28;43748;-69
2023/05/26 09:42:29;;;;;;;2.60;2.50;;;20.50;69.30;;;;;;5099232;27;43494;-69
2023/05/26 09:44:57;;;;;;;2.67;2.57;;;20.50;69.70;;;;;;5094470;27;43329;-70
2023/05/26 09:47:25;;;;;;;2.43;2.30;;;20.50;69.70;;;;;;5095883;27;43858;-70
2023/05/26 09:50:02;;;;;;;2.30;2.20;;;20.50;69.40;;;;;;5091245;28;44041;-69
2023/05/26 09:52:30;;;;;;;2.27;2.23;;;20.50;69.40;;;;;;5094683;27;43873;-69
2023/05/26 09:55:00;;;;;;;2.30;2.30;;;20.50;69.60;;;;;;5094057;28;43461;-71
2023/05/26 09:57:30;;;;;;;2.50;2.50;;;20.40;69.90;;;;;;5095406;28;43438;-70
2023/05/26 10:00:00;;;;;;;2.20;2.20;;;20.40;69.80;;;;;;5093379;28;43850;-70
2023/05/26 10:02:28;;;;;;;2.27;2.27;;;20.40;69.60;;;;;;5093332;28;43411;-70
2023/05/26 10:04:57;;;;;;;2.07;2.07;;;20.40;69.60;;;;;;5092570;28;43963;-70
2023/05/26 10:07:25;;;;;;;2.47;2.37;;;20.40;69.80;;;;;;5094122;27;43430;-70
2023/05/26 10:09:53;;;;;;;2.50;2.40;;;20.40;70.10;;;;;;5094659;27;43946;-69
2023/05/26 10:12:25;;;;;;;2.20;2.20;;;20.50;70.20;;;;;;5094134;27;43422;-69
2023/05/26 10:14:54;;;;;;;2.50;2.47;;;20.50;69.90;;;;;;5095180;27;43469;-69
2023/05/26 10:17:22;;;;;;;2.30;2.20;;;20.60;69.50;;;;;;5098403;27;43389;-70
2023/05/26 10:19:54;;;;;;;2.13;2.13;;;20.70;69.20;;;;;;5093767;27;43584;-69
2023/05/26 10:22:25;;;;;;;2.23;2.23;;;20.80;69.80;;;;;;5094390;27;43620;-69
2023/05/26 10:24:56;;;;;;;2.20;2.20;;;20.70;69.00;;;;;;5088210;28;43924;-69
2023/05/26 10:27:27;;;;;;;2.10;2.10;;;20.70;69.00;;;;;;5093089;28;43436;-70
2023/05/26 10:30:00;;;;;;;2.03;2.03;;;20.60;69.10;;;;;;5091133;28;43907;-70
2023/05/26 10:32:45;;;;;;;2.17;2.17;;;20.60;70.40;;;;;;5087127;27;43471;-69
2023/05/26 10:35:23;;;;;;;2.20;2.20;;;20.60;69.60;;;;;;5094126;27;43451;-68
2023/05/26 10:37:55;;;;;;;2.20;2.20;;;20.50;69.50;;;;;;5096019;27;43476;-69
2023/05/26 10:40:30;;;;;;;2.43;2.33;;;20.50;69.60;;;;;;5086145;28;46281;-68
2023/05/26 10:43:00;;;;;;;2.40;2.30;;;20.50;69.90;;;;;;5085798;28;44407;-69
2023/05/26 10:45:33;;;;;;;2.40;2.30;;;20.40;69.90;;;;;;5094068;28;43407;-68
2023/05/26 10:48:07;;;;;;;2.10;2.10;;;20.50;69.90;;;;;;5094176;27;43423;-68
2023/05/26 10:51:09;;;;;;;2.37;2.37;;;20.40;69.70;;;;;;5094275;27;44009;-69
2023/05/26 10:53:42;;;;;;;2.27;2.17;;;20.40;69.80;;;;;;5093631;28;43367;-69
2023/05/26 10:56:12;;;;;;;2.10;2.10;;;20.40;70.20;;;;;;5092480;27;43329;-69
2023/05/26 10:58:42;;;;;;;2.10;2.10;;;20.40;70.20;;;;;;5094055;27;43405;-69
2023/05/26 11:01:12;;;;;;;2.27;2.27;;;20.50;70.00;;;;;;5093919;27;43748;-68
2023/05/26 11:03:42;;;;;;;2.10;2.10;;;20.70;69.70;;;;;;5093233;27;43524;-69
2023/05/26 11:06:14;;;;;;;2.20;2.20;;;20.80;69.30;;;;;;5090027;28;43521;-69
2023/05/26 11:08:49;;;;;;;2.00;2.00;;;20.80;69.10;;;;;;5091161;28;44146;-69
2023/05/26 11:11:27;;;;;;;2.10;2.10;;;20.70;69.00;;;;;;5093158;27;43867;-69
2023/05/26 11:14:00;;;;;;;2.10;2.10;;;20.70;69.10;;;;;;5092553;27;43463;-70
2023/05/26 11:16:33;;;;;;;2.00;2.00;;;20.60;69.20;;;;;;5093280;28;43617;-69
2023/05/26 11:19:03;;;;;;;2.10;2.10;;;20.60;69.80;;;;;;5093792;27;43488;-69
2023/05/26 11:21:31;;;;;;;2.27;2.27;;;20.60;69.80;;;;;;5093044;27;43590;-69
2023/05/26 11:24:00;;;;;;;2.00;2.00;;;20.60;69.70;;;;;;5093016;27;43953;-69
2023/05/26 11:26:30;;;;;;;2.30;2.30;;;20.50;69.60;;;;;;5091344;28;43343;-69
2023/05/26 11:28:59;;;;;;;1.90;1.90;;;20.50;69.70;;;;;;5087801;28;43444;-69
2023/05/26 11:31:28;;;;;;;2.10;2.10;;;20.50;70.10;;;;;;5086657;28;43674;-69
2023/05/26 11:33:58;;;;;;;2.23;2.13;;;20.40;69.90;;;;;;5091212;27;44337;-69
2023/05/26 11:36:27;;;;;;;2.00;2.00;;;20.50;69.90;;;;;;5091850;27;43401;-70
2023/05/26 11:38:58;;;;;;;2.00;2.00;;;20.40;69.80;;;;;;5093481;28;43462;-69
2023/05/26 11:41:26;;;;;;;2.20;2.20;;;20.40;69.90;;;;;;5092314;27;43845;-71
2023/05/26 11:43:54;;;;;;;2.00;2.00;;;20.40;70.20;;;;;;5086791;28;43434;-69
2023/05/26 11:46:23;;;;;;;2.00;2.00;;;20.40;70.20;;;;;;5084306;27;43417;-69
2023/05/26 11:48:51;;;;;;;2.03;2.03;;;20.50;70.00;;;;;;5090763;28;43462;-71
2023/05/26 11:51:21;;;;;;;2.30;2.20;;;20.60;70.30;;;;;;5084575;28;43587;-69
2023/05/26 11:53:56;;;;;;;2.20;2.10;;;20.80;69.40;;;;;;5084076;27;44012;-69
2023/05/26 11:56:32;;;;;;;2.10;2.10;;;20.80;69.10;;;;;;5081126;27;43535;-69
2023/05/26 11:59:00;;;;;;;1.90;1.90;;;20.70;69.00;;;;;;5085511;28;43506;-69
2023/05/26 12:01:28;;;;;;;2.10;2.10;;;20.70;69.00;;;;;;5083046;27;43848;-69
2023/05/26 12:03:59;;;;;;;2.10;2.10;;;20.60;69.00;;;;;;5083087;27;43493;-72
2023/05/26 12:06:29;;;;;;;2.40;2.30;;;20.50;69.50;;;;;;5081209;28;43522;-71
2023/05/26 12:08:58;;;;;;;2.57;2.43;;;20.50;70.50;;;;;;5083033;28;43393;-70
2023/05/26 12:11:31;;;;;;;2.20;2.20;;;20.50;69.50;;;;;;5080721;28;46023;-69
2023/05/26 12:13:59;;;;;;;2.00;2.00;;;20.50;69.50;;;;;;5083710;28;43400;-69
2023/05/26 12:16:30;;;;;;;2.10;2.10;;;20.40;69.50;;;;;;5083506;28;43559;-71
2023/05/26 12:19:02;;;;;;;2.40;2.30;;;20.40;69.80;;;;;;5084124;28;43458;-69
2023/05/26 12:21:32;;;;;;;2.30;2.30;;;20.40;69.80;;;;;;5083084;28;43743;-70
2023/05/26 12:24:00;;;;;;;2.30;2.20;;;20.40;69.60;;;;;;5087076;27;43437;-69
2023/05/26 12:26:29;;;;;;;2.40;2.40;;;20.40;69.60;;;;;;5085632;27;43561;-68
2023/05/26 12:29:11;;;;;;;2.60;2.50;;;20.40;69.60;;;;;;5082822;27;43431;-69
2023/05/26 12:31:44;;;;;;;2.60;2.50;;;20.40;70.00;;;;;;5088708;27;43602;-69
2023/05/26 12:34:14;;;;;;;2.30;2.20;;;20.40;70.00;;;;;;5083666;28;43445;-69
2023/05/26 12:36:44;;;;;;;2.03;2.00;;;20.50;69.70;;;;;;5083363;27;44277;-69
2023/05/26 12:39:13;;;;;;;2.33;2.33;;;20.60;69.20;;;;;;5086906;28;43593;-68
2023/05/26 12:41:42;;;;;;;2.77;2.70;;;20.70;69.00;;;;;;5084567;28;43714;-69
2023/05/26 12:44:10;;;;;;;2.50;2.40;;;20.70;69.00;;;;;;5080250;28;45023;-69
2023/05/26 12:46:39;;;;;;;2.70;2.60;;;20.70;68.70;;;;;;5086751;27;43367;-69
2023/05/26 12:49:07;;;;;;;2.50;2.50;;;20.70;68.80;;;;;;5089094;28;43413;-69
2023/05/26 12:51:35;;;;;;;2.27;2.27;;;20.60;68.90;;;;;;5086871;28;46111;-69
2023/05/26 12:54:05;;;;;;;2.67;2.57;;;20.50;69.30;;;;;;5083010;28;44365;-70
2023/05/26 12:56:33;;;;;;;2.20;2.20;;;20.50;69.40;;;;;;5088261;28;43998;-71
2023/05/26 12:59:01;;;;;;;2.50;2.50;;;20.50;69.40;;;;;;5087753;27;43353;-69
2023/05/26 13:01:45;;;;;;;2.37;2.30;;;20.50;69.50;;;;;;5094740;28;43801;-69
2023/05/26 13:04:13;;;;;;;2.30;2.30;;;20.50;69.70;;;;;;5094873;27;44047;-70